メインページ
METAR-TAF:

METAR-TAF

空港 :

鹿屋, 日本

鹿屋航空基地

緯度: 31-22N, 経度: 130-50E, 海抜: 65m

現時点の気象観測

当レポートは17時間21分前の13:04(UTC)に作成
の風 4kt
気温 7°C
湿度 39%
気圧 1021 hPa
視程10km以上

METAR: RJFY 171304Z 35004KT 9999 NSC 07/M06 Q1021 RMK A3018

時間: 15:25 (06:25 UTC)


TAF: 見つかりません

4,000以上の空港の気象観測と天気予報(METAR報とTAF報)

利用可能な観測所は地図上に黄色い丸と赤い丸で示す。

丸の上にカーソルを重ねると観測所名を参照できる。

次にクリックすると気象観測と天気予報を参照できる。

マップの切り替え:黒色「×」印の緑ボタンをクリックして拡大、「-」印の緑ボタンをクリックして縮小、緑色の三角印をクリックして隣りの地図に切り替え


METAR-TAF: